sensor_id;sensor_type;location;lat;lon;timestamp;P1;durP1;ratioP1;P2;durP2;ratioP2
12663;SDS011;6396;58.490;15.528;2022-12-29T00:02:08;4.17;;;3.20;;
12663;SDS011;6396;58.490;15.528;2022-12-29T00:04:37;6.67;;;4.10;;
12663;SDS011;6396;58.490;15.528;2022-12-29T00:07:04;6.50;;;3.40;;
12663;SDS011;6396;58.490;15.528;2022-12-29T00:09:32;7.17;;;3.73;;
12663;SDS011;6396;58.490;15.528;2022-12-29T00:12:00;6.40;;;4.30;;
12663;SDS011;6396;58.490;15.528;2022-12-29T00:14:27;5.33;;;3.47;;
12663;SDS011;6396;58.490;15.528;2022-12-29T00:17:11;42.57;;;7.67;;
12663;SDS011;6396;58.490;15.528;2022-12-29T00:19:40;17.87;;;4.80;;
12663;SDS011;6396;58.490;15.528;2022-12-29T00:22:27;5.90;;;3.90;;
12663;SDS011;6396;58.490;15.528;2022-12-29T00:25:14;11.57;;;4.10;;
12663;SDS011;6396;58.490;15.528;2022-12-29T00:27:59;7.30;;;4.23;;
12663;SDS011;6396;58.490;15.528;2022-12-29T00:30:43;15.20;;;4.13;;
12663;SDS011;6396;58.490;15.528;2022-12-29T00:33:28;34.17;;;6.03;;
12663;SDS011;6396;58.490;15.528;2022-12-29T00:36:16;7.87;;;4.33;;
12663;SDS011;6396;58.490;15.528;2022-12-29T00:38:47;12.13;;;4.17;;
12663;SDS011;6396;58.490;15.528;2022-12-29T00:41:34;22.27;;;4.70;;
12663;SDS011;6396;58.490;15.528;2022-12-29T00:44:17;11.40;;;4.00;;
12663;SDS011;6396;58.490;15.528;2022-12-29T00:46:44;15.27;;;4.00;;
12663;SDS011;6396;58.490;15.528;2022-12-29T00:49:12;34.83;;;7.43;;
12663;SDS011;6396;58.490;15.528;2022-12-29T00:51:59;67.87;;;9.23;;
12663;SDS011;6396;58.490;15.528;2022-12-29T00:54:27;36.50;;;6.33;;
12663;SDS011;6396;58.490;15.528;2022-12-29T00:56:55;17.47;;;4.53;;
12663;SDS011;6396;58.490;15.528;2022-12-29T00:59:22;7.10;;;3.57;;
12663;SDS011;6396;58.490;15.528;2022-12-29T01:01:49;7.03;;;3.33;;
12663;SDS011;6396;58.490;15.528;2022-12-29T01:04:17;16.87;;;4.93;;
12663;SDS011;6396;58.490;15.528;2022-12-29T01:06:44;10.23;;;3.80;;
12663;SDS011;6396;58.490;15.528;2022-12-29T01:09:12;6.53;;;3.53;;
12663;SDS011;6396;58.490;15.528;2022-12-29T01:11:57;14.67;;;4.73;;
12663;SDS011;6396;58.490;15.528;2022-12-29T01:14:24;33.13;;;5.63;;
12663;SDS011;6396;58.490;15.528;2022-12-29T01:16:54;10.97;;;3.67;;
12663;SDS011;6396;58.490;15.528;2022-12-29T01:19:21;20.90;;;5.00;;
12663;SDS011;6396;58.490;15.528;2022-12-29T01:21:49;9.53;;;4.17;;
12663;SDS011;6396;58.490;15.528;2022-12-29T01:24:18;13.70;;;3.67;;
12663;SDS011;6396;58.490;15.528;2022-12-29T01:26:46;5.93;;;3.37;;
12663;SDS011;6396;58.490;15.528;2022-12-29T01:29:15;6.23;;;3.20;;
12663;SDS011;6396;58.490;15.528;2022-12-29T01:31:41;28.13;;;5.70;;
12663;SDS011;6396;58.490;15.528;2022-12-29T01:34:08;7.20;;;3.60;;
12663;SDS011;6396;58.490;15.528;2022-12-29T01:36:35;144.43;;;17.27;;
12663;SDS011;6396;58.490;15.528;2022-12-29T01:39:02;45.20;;;7.27;;
12663;SDS011;6396;58.490;15.528;2022-12-29T01:41:30;8.43;;;3.37;;
12663;SDS011;6396;58.490;15.528;2022-12-29T01:43:58;20.43;;;5.13;;
12663;SDS011;6396;58.490;15.528;2022-12-29T01:46:27;18.40;;;4.37;;
12663;SDS011;6396;58.490;15.528;2022-12-29T01:48:59;26.47;;;5.43;;
12663;SDS011;6396;58.490;15.528;2022-12-29T01:51:31;10.37;;;3.73;;
12663;SDS011;6396;58.490;15.528;2022-12-29T01:54:02;13.53;;;3.60;;
12663;SDS011;6396;58.490;15.528;2022-12-29T01:56:38;8.07;;;3.33;;
12663;SDS011;6396;58.490;15.528;2022-12-29T01:59:06;5.47;;;2.90;;
12663;SDS011;6396;58.490;15.528;2022-12-29T02:01:39;11.03;;;3.33;;
12663;SDS011;6396;58.490;15.528;2022-12-29T02:04:07;5.50;;;2.97;;
12663;SDS011;6396;58.490;15.528;2022-12-29T02:06:37;6.97;;;3.60;;
12663;SDS011;6396;58.490;15.528;2022-12-29T02:09:09;4.40;;;2.80;;
12663;SDS011;6396;58.490;15.528;2022-12-29T02:11:37;5.10;;;3.17;;
12663;SDS011;6396;58.490;15.528;2022-12-29T02:14:07;4.20;;;3.07;;
12663;SDS011;6396;58.490;15.528;2022-12-29T02:16:39;4.23;;;2.93;;
12663;SDS011;6396;58.490;15.528;2022-12-29T02:19:29;3.40;;;2.77;;
12663;SDS011;6396;58.490;15.528;2022-12-29T02:22:27;4.83;;;3.23;;
12663;SDS011;6396;58.490;15.528;2022-12-29T02:25:04;4.03;;;2.60;;
12663;SDS011;6396;58.490;15.528;2022-12-29T02:27:54;3.97;;;2.90;;
12663;SDS011;6396;58.490;15.528;2022-12-29T02:33:21;19.10;;;4.10;;
12663;SDS011;6396;58.490;15.528;2022-12-29T02:36:00;8.50;;;3.43;;
12663;SDS011;6396;58.490;15.528;2022-12-29T02:38:39;3.30;;;2.73;;
12663;SDS011;6396;58.490;15.528;2022-12-29T02:41:18;4.10;;;2.73;;
12663;SDS011;6396;58.490;15.528;2022-12-29T02:43:50;3.33;;;2.60;;
12663;SDS011;6396;58.490;15.528;2022-12-29T02:46:25;4.40;;;2.73;;
12663;SDS011;6396;58.490;15.528;2022-12-29T02:49:01;6.97;;;2.83;;
12663;SDS011;6396;58.490;15.528;2022-12-29T02:51:35;4.07;;;2.80;;
12663;SDS011;6396;58.490;15.528;2022-12-29T02:54:09;3.20;;;2.40;;
12663;SDS011;6396;58.490;15.528;2022-12-29T02:56:54;4.40;;;2.83;;
12663;SDS011;6396;58.490;15.528;2022-12-29T02:59:21;2.60;;;2.37;;
12663;SDS011;6396;58.490;15.528;2022-12-29T03:01:59;5.73;;;3.10;;
12663;SDS011;6396;58.490;15.528;2022-12-29T03:04:44;4.93;;;2.80;;
12663;SDS011;6396;58.490;15.528;2022-12-29T03:07:26;10.53;;;3.87;;
12663;SDS011;6396;58.490;15.528;2022-12-29T03:10:04;4.87;;;3.00;;
12663;SDS011;6396;58.490;15.528;2022-12-29T03:12:41;5.10;;;2.87;;
12663;SDS011;6396;58.490;15.528;2022-12-29T03:15:33;9.13;;;2.97;;
12663;SDS011;6396;58.490;15.528;2022-12-29T03:18:25;6.03;;;3.13;;
12663;SDS011;6396;58.490;15.528;2022-12-29T03:21:00;13.27;;;3.67;;
12663;SDS011;6396;58.490;15.528;2022-12-29T03:23:31;9.50;;;3.30;;
12663;SDS011;6396;58.490;15.528;2022-12-29T03:26:01;9.47;;;2.87;;
12663;SDS011;6396;58.490;15.528;2022-12-29T03:28:35;3.67;;;2.93;;
12663;SDS011;6396;58.490;15.528;2022-12-29T03:31:05;3.40;;;2.87;;
12663;SDS011;6396;58.490;15.528;2022-12-29T03:33:36;9.23;;;3.80;;
12663;SDS011;6396;58.490;15.528;2022-12-29T03:36:06;3.93;;;2.90;;
12663;SDS011;6396;58.490;15.528;2022-12-29T03:38:39;7.17;;;2.83;;
12663;SDS011;6396;58.490;15.528;2022-12-29T03:41:13;3.53;;;2.50;;
12663;SDS011;6396;58.490;15.528;2022-12-29T03:43:43;3.10;;;2.57;;
12663;SDS011;6396;58.490;15.528;2022-12-29T03:46:10;3.70;;;2.53;;
12663;SDS011;6396;58.490;15.528;2022-12-29T03:48:38;3.87;;;2.80;;
12663;SDS011;6396;58.490;15.528;2022-12-29T03:51:05;3.83;;;2.73;;
12663;SDS011;6396;58.490;15.528;2022-12-29T03:53:31;11.50;;;3.40;;
12663;SDS011;6396;58.490;15.528;2022-12-29T03:55:58;3.10;;;2.80;;
12663;SDS011;6396;58.490;15.528;2022-12-29T03:58:25;4.40;;;3.10;;
12663;SDS011;6396;58.490;15.528;2022-12-29T04:00:52;2.83;;;2.40;;
12663;SDS011;6396;58.490;15.528;2022-12-29T04:03:19;3.60;;;2.70;;
12663;SDS011;6396;58.490;15.528;2022-12-29T04:05:47;4.90;;;2.90;;
12663;SDS011;6396;58.490;15.528;2022-12-29T04:08:14;3.47;;;2.80;;
12663;SDS011;6396;58.490;15.528;2022-12-29T04:10:41;4.50;;;3.23;;
12663;SDS011;6396;58.490;15.528;2022-12-29T04:13:07;5.50;;;4.00;;
12663;SDS011;6396;58.490;15.528;2022-12-29T04:15:34;6.73;;;3.60;;
12663;SDS011;6396;58.490;15.528;2022-12-29T04:18:01;4.73;;;2.77;;
12663;SDS011;6396;58.490;15.528;2022-12-29T04:20:28;3.80;;;2.83;;
12663;SDS011;6396;58.490;15.528;2022-12-29T04:23:14;4.13;;;2.70;;
12663;SDS011;6396;58.490;15.528;2022-12-29T04:25:40;3.53;;;2.70;;
12663;SDS011;6396;58.490;15.528;2022-12-29T04:28:07;7.70;;;3.10;;
12663;SDS011;6396;58.490;15.528;2022-12-29T04:30:34;2.87;;;2.53;;
12663;SDS011;6396;58.490;15.528;2022-12-29T04:33:01;4.50;;;2.90;;
12663;SDS011;6396;58.490;15.528;2022-12-29T04:35:27;4.13;;;2.70;;
12663;SDS011;6396;58.490;15.528;2022-12-29T04:37:54;4.10;;;2.80;;
12663;SDS011;6396;58.490;15.528;2022-12-29T04:40:22;3.07;;;2.73;;
12663;SDS011;6396;58.490;15.528;2022-12-29T04:42:49;3.83;;;2.93;;
12663;SDS011;6396;58.490;15.528;2022-12-29T04:45:16;4.03;;;2.53;;
12663;SDS011;6396;58.490;15.528;2022-12-29T04:47:43;3.20;;;2.47;;
12663;SDS011;6396;58.490;15.528;2022-12-29T04:50:10;5.60;;;2.80;;
12663;SDS011;6396;58.490;15.528;2022-12-29T04:52:37;3.80;;;2.63;;
12663;SDS011;6396;58.490;15.528;2022-12-29T04:55:04;4.53;;;2.97;;
12663;SDS011;6396;58.490;15.528;2022-12-29T04:57:33;4.03;;;2.80;;
12663;SDS011;6396;58.490;15.528;2022-12-29T05:00:00;3.67;;;2.77;;
12663;SDS011;6396;58.490;15.528;2022-12-29T05:02:28;3.30;;;2.20;;
12663;SDS011;6396;58.490;15.528;2022-12-29T05:04:55;3.67;;;2.60;;
12663;SDS011;6396;58.490;15.528;2022-12-29T05:07:21;4.90;;;2.93;;
12663;SDS011;6396;58.490;15.528;2022-12-29T05:09:48;3.00;;;2.73;;
12663;SDS011;6396;58.490;15.528;2022-12-29T05:12:15;3.27;;;2.63;;
12663;SDS011;6396;58.490;15.528;2022-12-29T05:14:44;3.83;;;2.60;;
12663;SDS011;6396;58.490;15.528;2022-12-29T05:17:11;3.93;;;3.03;;
12663;SDS011;6396;58.490;15.528;2022-12-29T05:19:38;3.07;;;2.47;;
12663;SDS011;6396;58.490;15.528;2022-12-29T05:22:04;5.53;;;2.50;;
12663;SDS011;6396;58.490;15.528;2022-12-29T05:24:31;4.90;;;2.87;;
12663;SDS011;6396;58.490;15.528;2022-12-29T05:26:58;3.70;;;2.60;;
12663;SDS011;6396;58.490;15.528;2022-12-29T05:29:25;3.33;;;2.57;;
12663;SDS011;6396;58.490;15.528;2022-12-29T05:31:53;3.57;;;3.00;;
12663;SDS011;6396;58.490;15.528;2022-12-29T05:34:20;3.40;;;2.40;;
12663;SDS011;6396;58.490;15.528;2022-12-29T05:36:47;3.80;;;2.77;;
12663;SDS011;6396;58.490;15.528;2022-12-29T05:39:13;3.07;;;2.23;;
12663;SDS011;6396;58.490;15.528;2022-12-29T05:41:40;2.73;;;2.50;;
12663;SDS011;6396;58.490;15.528;2022-12-29T05:44:07;2.97;;;2.50;;
12663;SDS011;6396;58.490;15.528;2022-12-29T05:46:34;3.73;;;2.80;;
12663;SDS011;6396;58.490;15.528;2022-12-29T05:49:02;3.53;;;2.90;;
12663;SDS011;6396;58.490;15.528;2022-12-29T05:51:29;2.80;;;2.43;;
12663;SDS011;6396;58.490;15.528;2022-12-29T05:53:56;3.13;;;2.40;;
12663;SDS011;6396;58.490;15.528;2022-12-29T05:56:23;4.07;;;2.73;;
12663;SDS011;6396;58.490;15.528;2022-12-29T05:58:50;3.20;;;2.57;;
12663;SDS011;6396;58.490;15.528;2022-12-29T06:01:16;3.83;;;2.47;;
12663;SDS011;6396;58.490;15.528;2022-12-29T06:03:43;3.47;;;2.60;;
12663;SDS011;6396;58.490;15.528;2022-12-29T06:06:11;2.63;;;2.43;;
12663;SDS011;6396;58.490;15.528;2022-12-29T06:08:38;4.40;;;2.57;;
12663;SDS011;6396;58.490;15.528;2022-12-29T06:11:05;3.93;;;3.00;;
12663;SDS011;6396;58.490;15.528;2022-12-29T06:13:32;3.20;;;2.40;;
12663;SDS011;6396;58.490;15.528;2022-12-29T06:15:59;3.50;;;2.40;;
12663;SDS011;6396;58.490;15.528;2022-12-29T06:18:27;2.90;;;2.63;;
12663;SDS011;6396;58.490;15.528;2022-12-29T06:20:54;3.20;;;2.90;;
12663;SDS011;6396;58.490;15.528;2022-12-29T06:23:27;2.60;;;2.40;;
12663;SDS011;6396;58.490;15.528;2022-12-29T06:25:56;2.97;;;2.60;;
12663;SDS011;6396;58.490;15.528;2022-12-29T06:28:23;2.70;;;2.50;;
12663;SDS011;6396;58.490;15.528;2022-12-29T06:30:50;3.10;;;2.77;;
12663;SDS011;6396;58.490;15.528;2022-12-29T06:33:17;3.37;;;2.60;;
12663;SDS011;6396;58.490;15.528;2022-12-29T06:35:44;3.10;;;2.70;;
12663;SDS011;6396;58.490;15.528;2022-12-29T06:38:11;2.93;;;2.67;;
12663;SDS011;6396;58.490;15.528;2022-12-29T06:40:39;3.73;;;2.90;;
12663;SDS011;6396;58.490;15.528;2022-12-29T06:43:09;3.10;;;2.53;;
12663;SDS011;6396;58.490;15.528;2022-12-29T06:45:37;3.20;;;2.57;;
12663;SDS011;6396;58.490;15.528;2022-12-29T06:48:04;2.97;;;2.67;;
12663;SDS011;6396;58.490;15.528;2022-12-29T06:50:32;3.17;;;2.87;;
12663;SDS011;6396;58.490;15.528;2022-12-29T06:52:58;3.40;;;2.80;;
12663;SDS011;6396;58.490;15.528;2022-12-29T06:55:25;4.10;;;2.97;;
12663;SDS011;6396;58.490;15.528;2022-12-29T06:57:55;3.40;;;3.10;;
12663;SDS011;6396;58.490;15.528;2022-12-29T07:00:22;3.30;;;3.00;;
12663;SDS011;6396;58.490;15.528;2022-12-29T07:02:49;3.70;;;3.30;;
12663;SDS011;6396;58.490;15.528;2022-12-29T07:05:16;3.87;;;2.93;;
12663;SDS011;6396;58.490;15.528;2022-12-29T07:07:43;4.53;;;3.03;;
12663;SDS011;6396;58.490;15.528;2022-12-29T07:10:09;3.47;;;3.17;;
12663;SDS011;6396;58.490;15.528;2022-12-29T07:12:36;4.60;;;3.03;;
12663;SDS011;6396;58.490;15.528;2022-12-29T07:15:05;4.47;;;3.60;;
12663;SDS011;6396;58.490;15.528;2022-12-29T07:17:33;5.63;;;3.30;;
12663;SDS011;6396;58.490;15.528;2022-12-29T07:20:00;5.27;;;3.03;;
12663;SDS011;6396;58.490;15.528;2022-12-29T07:22:27;3.43;;;3.00;;
12663;SDS011;6396;58.490;15.528;2022-12-29T07:24:53;3.90;;;3.07;;
12663;SDS011;6396;58.490;15.528;2022-12-29T07:27:20;5.00;;;3.30;;
12663;SDS011;6396;58.490;15.528;2022-12-29T07:29:47;3.50;;;3.10;;
12663;SDS011;6396;58.490;15.528;2022-12-29T07:32:15;4.20;;;3.27;;
12663;SDS011;6396;58.490;15.528;2022-12-29T07:34:42;3.67;;;3.20;;
12663;SDS011;6396;58.490;15.528;2022-12-29T07:37:10;4.10;;;3.67;;
12663;SDS011;6396;58.490;15.528;2022-12-29T07:39:37;3.83;;;3.40;;
12663;SDS011;6396;58.490;15.528;2022-12-29T07:42:03;4.50;;;3.60;;
12663;SDS011;6396;58.490;15.528;2022-12-29T07:44:30;3.70;;;3.00;;
12663;SDS011;6396;58.490;15.528;2022-12-29T07:46:57;3.63;;;3.20;;
12663;SDS011;6396;58.490;15.528;2022-12-29T07:49:25;6.80;;;3.83;;
12663;SDS011;6396;58.490;15.528;2022-12-29T07:51:52;4.60;;;3.10;;
12663;SDS011;6396;58.490;15.528;2022-12-29T07:54:19;3.23;;;2.83;;
12663;SDS011;6396;58.490;15.528;2022-12-29T07:56:47;3.10;;;2.80;;
12663;SDS011;6396;58.490;15.528;2022-12-29T07:59:14;4.00;;;3.30;;
12663;SDS011;6396;58.490;15.528;2022-12-29T08:01:41;4.63;;;3.03;;
12663;SDS011;6396;58.490;15.528;2022-12-29T08:04:08;3.77;;;2.90;;
12663;SDS011;6396;58.490;15.528;2022-12-29T08:06:36;3.20;;;2.90;;
12663;SDS011;6396;58.490;15.528;2022-12-29T08:09:03;3.40;;;2.77;;
12663;SDS011;6396;58.490;15.528;2022-12-29T08:11:30;3.57;;;2.97;;
12663;SDS011;6396;58.490;15.528;2022-12-29T08:13:57;3.30;;;2.83;;
12663;SDS011;6396;58.490;15.528;2022-12-29T08:16:23;3.00;;;2.70;;
12663;SDS011;6396;58.490;15.528;2022-12-29T08:18:50;2.97;;;2.63;;
12663;SDS011;6396;58.490;15.528;2022-12-29T08:21:17;2.77;;;2.47;;
12663;SDS011;6396;58.490;15.528;2022-12-29T08:23:45;2.40;;;2.17;;
12663;SDS011;6396;58.490;15.528;2022-12-29T08:26:13;3.30;;;2.53;;
12663;SDS011;6396;58.490;15.528;2022-12-29T08:28:40;2.60;;;2.40;;
12663;SDS011;6396;58.490;15.528;2022-12-29T08:31:10;2.83;;;2.13;;
12663;SDS011;6396;58.490;15.528;2022-12-29T08:33:40;2.30;;;2.10;;
12663;SDS011;6396;58.490;15.528;2022-12-29T08:36:07;3.37;;;2.40;;
12663;SDS011;6396;58.490;15.528;2022-12-29T08:38:34;2.33;;;2.03;;
12663;SDS011;6396;58.490;15.528;2022-12-29T08:41:03;2.60;;;2.20;;
12663;SDS011;6396;58.490;15.528;2022-12-29T08:43:30;3.40;;;2.50;;
12663;SDS011;6396;58.490;15.528;2022-12-29T08:45:57;3.37;;;2.33;;
12663;SDS011;6396;58.490;15.528;2022-12-29T08:48:24;4.33;;;2.50;;
12663;SDS011;6396;58.490;15.528;2022-12-29T08:50:51;3.43;;;2.30;;
12663;SDS011;6396;58.490;15.528;2022-12-29T08:53:18;2.60;;;2.27;;
12663;SDS011;6396;58.490;15.528;2022-12-29T08:55:46;2.37;;;2.10;;
12663;SDS011;6396;58.490;15.528;2022-12-29T08:58:15;2.50;;;2.20;;
12663;SDS011;6396;58.490;15.528;2022-12-29T09:00:43;2.57;;;2.37;;
12663;SDS011;6396;58.490;15.528;2022-12-29T09:03:10;2.50;;;2.30;;
12663;SDS011;6396;58.490;15.528;2022-12-29T09:05:36;3.20;;;2.50;;
12663;SDS011;6396;58.490;15.528;2022-12-29T09:08:03;3.70;;;2.50;;
12663;SDS011;6396;58.490;15.528;2022-12-29T09:10:30;3.10;;;2.40;;
12663;SDS011;6396;58.490;15.528;2022-12-29T09:12:57;2.63;;;2.40;;
12663;SDS011;6396;58.490;15.528;2022-12-29T09:15:26;2.77;;;2.43;;
12663;SDS011;6396;58.490;15.528;2022-12-29T09:17:53;3.27;;;2.50;;
12663;SDS011;6396;58.490;15.528;2022-12-29T09:20:20;2.90;;;2.60;;
12663;SDS011;6396;58.490;15.528;2022-12-29T09:22:47;2.10;;;1.90;;
12663;SDS011;6396;58.490;15.528;2022-12-29T09:25:14;3.07;;;2.30;;
12663;SDS011;6396;58.490;15.528;2022-12-29T09:27:42;2.30;;;2.10;;
12663;SDS011;6396;58.490;15.528;2022-12-29T09:30:10;2.20;;;2.00;;
12663;SDS011;6396;58.490;15.528;2022-12-29T09:32:41;2.20;;;2.00;;
12663;SDS011;6396;58.490;15.528;2022-12-29T09:35:07;2.57;;;2.20;;
12663;SDS011;6396;58.490;15.528;2022-12-29T09:37:34;2.77;;;1.90;;
12663;SDS011;6396;58.490;15.528;2022-12-29T09:40:01;2.43;;;2.07;;
12663;SDS011;6396;58.490;15.528;2022-12-29T09:42:29;2.50;;;2.23;;
12663;SDS011;6396;58.490;15.528;2022-12-29T09:45:04;2.97;;;2.30;;
12663;SDS011;6396;58.490;15.528;2022-12-29T09:47:41;2.20;;;2.00;;
12663;SDS011;6396;58.490;15.528;2022-12-29T09:50:17;3.50;;;2.60;;
12663;SDS011;6396;58.490;15.528;2022-12-29T09:52:50;6.93;;;3.63;;
12663;SDS011;6396;58.490;15.528;2022-12-29T09:55:20;6.23;;;3.90;;
12663;SDS011;6396;58.490;15.528;2022-12-29T09:57:52;4.90;;;3.07;;
12663;SDS011;6396;58.490;15.528;2022-12-29T10:00:23;2.07;;;1.87;;
12663;SDS011;6396;58.490;15.528;2022-12-29T10:03:03;2.60;;;2.40;;
12663;SDS011;6396;58.490;15.528;2022-12-29T10:05:38;2.47;;;2.20;;
12663;SDS011;6396;58.490;15.528;2022-12-29T10:08:16;2.90;;;2.10;;
12663;SDS011;6396;58.490;15.528;2022-12-29T10:11:12;2.40;;;2.20;;
12663;SDS011;6396;58.490;15.528;2022-12-29T10:13:53;2.50;;;2.30;;
12663;SDS011;6396;58.490;15.528;2022-12-29T10:16:37;1.93;;;1.77;;
12663;SDS011;6396;58.490;15.528;2022-12-29T10:19:19;2.30;;;2.10;;
12663;SDS011;6396;58.490;15.528;2022-12-29T10:22:04;2.00;;;1.80;;
12663;SDS011;6396;58.490;15.528;2022-12-29T10:24:41;2.13;;;1.83;;
12663;SDS011;6396;58.490;15.528;2022-12-29T10:27:11;3.63;;;2.03;;
12663;SDS011;6396;58.490;15.528;2022-12-29T10:29:41;1.87;;;1.77;;
12663;SDS011;6396;58.490;15.528;2022-12-29T10:32:15;2.27;;;2.07;;
12663;SDS011;6396;58.490;15.528;2022-12-29T10:34:53;1.90;;;1.80;;
12663;SDS011;6396;58.490;15.528;2022-12-29T10:37:34;2.77;;;2.10;;
12663;SDS011;6396;58.490;15.528;2022-12-29T10:40:15;1.90;;;1.80;;
12663;SDS011;6396;58.490;15.528;2022-12-29T10:42:50;2.00;;;1.80;;
12663;SDS011;6396;58.490;15.528;2022-12-29T10:45:19;2.03;;;1.83;;
12663;SDS011;6396;58.490;15.528;2022-12-29T10:47:51;3.63;;;2.00;;
12663;SDS011;6396;58.490;15.528;2022-12-29T10:50:24;2.20;;;2.00;;
12663;SDS011;6396;58.490;15.528;2022-12-29T10:52:54;2.60;;;1.90;;
12663;SDS011;6396;58.490;15.528;2022-12-29T10:55:25;2.00;;;1.80;;
12663;SDS011;6396;58.490;15.528;2022-12-29T10:57:58;3.27;;;1.80;;
12663;SDS011;6396;58.490;15.528;2022-12-29T11:00:31;2.93;;;1.80;;
12663;SDS011;6396;58.490;15.528;2022-12-29T11:03:04;2.30;;;1.90;;
12663;SDS011;6396;58.490;15.528;2022-12-29T11:05:52;2.83;;;1.60;;
12663;SDS011;6396;58.490;15.528;2022-12-29T11:08:24;2.60;;;2.10;;
12663;SDS011;6396;58.490;15.528;2022-12-29T11:10:57;2.77;;;1.70;;
12663;SDS011;6396;58.490;15.528;2022-12-29T11:13:27;2.33;;;1.60;;
12663;SDS011;6396;58.490;15.528;2022-12-29T11:15:55;1.83;;;1.67;;
12663;SDS011;6396;58.490;15.528;2022-12-29T11:18:23;2.67;;;1.90;;
12663;SDS011;6396;58.490;15.528;2022-12-29T11:20:53;2.30;;;2.00;;
12663;SDS011;6396;58.490;15.528;2022-12-29T11:23:30;2.77;;;1.70;;
12663;SDS011;6396;58.490;15.528;2022-12-29T11:26:12;1.93;;;1.70;;
12663;SDS011;6396;58.490;15.528;2022-12-29T11:28:42;1.40;;;1.30;;
12663;SDS011;6396;58.490;15.528;2022-12-29T11:31:10;1.57;;;1.40;;
12663;SDS011;6396;58.490;15.528;2022-12-29T11:33:42;1.43;;;1.33;;
12663;SDS011;6396;58.490;15.528;2022-12-29T11:36:12;1.60;;;1.50;;
12663;SDS011;6396;58.490;15.528;2022-12-29T11:38:42;1.33;;;1.23;;
12663;SDS011;6396;58.490;15.528;2022-12-29T11:41:13;1.47;;;1.20;;
12663;SDS011;6396;58.490;15.528;2022-12-29T11:43:47;1.30;;;1.20;;
12663;SDS011;6396;58.490;15.528;2022-12-29T11:46:14;2.03;;;1.40;;
12663;SDS011;6396;58.490;15.528;2022-12-29T11:48:45;1.30;;;1.20;;
12663;SDS011;6396;58.490;15.528;2022-12-29T11:51:15;1.13;;;1.10;;
12663;SDS011;6396;58.490;15.528;2022-12-29T11:53:49;1.40;;;1.30;;
12663;SDS011;6396;58.490;15.528;2022-12-29T11:56:20;2.07;;;1.50;;
12663;SDS011;6396;58.490;15.528;2022-12-29T11:59:00;1.43;;;1.33;;
12663;SDS011;6396;58.490;15.528;2022-12-29T12:02:14;1.90;;;1.20;;
12663;SDS011;6396;58.490;15.528;2022-12-29T12:04:56;1.57;;;1.47;;
12663;SDS011;6396;58.490;15.528;2022-12-29T12:07:34;1.30;;;1.20;;
12663;SDS011;6396;58.490;15.528;2022-12-29T12:10:13;2.47;;;1.60;;
12663;SDS011;6396;58.490;15.528;2022-12-29T12:12:47;2.43;;;1.60;;
12663;SDS011;6396;58.490;15.528;2022-12-29T12:15:39;1.93;;;1.73;;
12663;SDS011;6396;58.490;15.528;2022-12-29T12:18:10;2.10;;;1.90;;
12663;SDS011;6396;58.490;15.528;2022-12-29T12:20:45;3.13;;;1.70;;
12663;SDS011;6396;58.490;15.528;2022-12-29T12:26:58;2.47;;;2.17;;
12663;SDS011;6396;58.490;15.528;2022-12-29T12:30:04;2.80;;;2.03;;
12663;SDS011;6396;58.490;15.528;2022-12-29T12:35:42;2.87;;;1.73;;
12663;SDS011;6396;58.490;15.528;2022-12-29T12:38:24;1.77;;;1.67;;
12663;SDS011;6396;58.490;15.528;2022-12-29T12:41:32;2.43;;;1.60;;
12663;SDS011;6396;58.490;15.528;2022-12-29T12:44:14;1.90;;;1.80;;
12663;SDS011;6396;58.490;15.528;2022-12-29T12:47:04;2.17;;;1.87;;
12663;SDS011;6396;58.490;15.528;2022-12-29T12:56:00;2.87;;;2.00;;
12663;SDS011;6396;58.490;15.528;2022-12-29T12:58:41;2.33;;;2.13;;
12663;SDS011;6396;58.490;15.528;2022-12-29T13:01:31;1.77;;;1.67;;
12663;SDS011;6396;58.490;15.528;2022-12-29T13:04:23;3.70;;;1.87;;
12663;SDS011;6396;58.490;15.528;2022-12-29T13:07:04;1.90;;;1.80;;
12663;SDS011;6396;58.490;15.528;2022-12-29T13:09:45;1.73;;;1.53;;
12663;SDS011;6396;58.490;15.528;2022-12-29T13:12:23;1.70;;;1.43;;
12663;SDS011;6396;58.490;15.528;2022-12-29T13:15:02;1.57;;;1.47;;
12663;SDS011;6396;58.490;15.528;2022-12-29T13:17:39;2.13;;;1.60;;
12663;SDS011;6396;58.490;15.528;2022-12-29T13:20:17;2.20;;;1.80;;
12663;SDS011;6396;58.490;15.528;2022-12-29T13:22:53;2.80;;;2.03;;
12663;SDS011;6396;58.490;15.528;2022-12-29T13:25:28;3.60;;;2.53;;
12663;SDS011;6396;58.490;15.528;2022-12-29T13:28:02;2.87;;;1.80;;
12663;SDS011;6396;58.490;15.528;2022-12-29T13:30:40;2.70;;;1.60;;
12663;SDS011;6396;58.490;15.528;2022-12-29T13:33:13;1.83;;;1.50;;
12663;SDS011;6396;58.490;15.528;2022-12-29T13:35:54;1.70;;;1.60;;
12663;SDS011;6396;58.490;15.528;2022-12-29T13:38:26;1.60;;;1.50;;
12663;SDS011;6396;58.490;15.528;2022-12-29T13:41:00;1.93;;;1.50;;
12663;SDS011;6396;58.490;15.528;2022-12-29T13:43:30;2.20;;;1.80;;
12663;SDS011;6396;58.490;15.528;2022-12-29T13:46:02;2.00;;;1.60;;
12663;SDS011;6396;58.490;15.528;2022-12-29T13:48:37;1.53;;;1.37;;
12663;SDS011;6396;58.490;15.528;2022-12-29T13:51:09;2.10;;;1.43;;
12663;SDS011;6396;58.490;15.528;2022-12-29T13:53:41;2.43;;;1.53;;
12663;SDS011;6396;58.490;15.528;2022-12-29T13:56:22;1.87;;;1.43;;
12663;SDS011;6396;58.490;15.528;2022-12-29T13:58:57;1.30;;;1.20;;
12663;SDS011;6396;58.490;15.528;2022-12-29T14:01:31;2.50;;;1.50;;
12663;SDS011;6396;58.490;15.528;2022-12-29T14:04:02;1.30;;;1.20;;
12663;SDS011;6396;58.490;15.528;2022-12-29T14:06:38;1.83;;;1.50;;
12663;SDS011;6396;58.490;15.528;2022-12-29T14:12:19;2.63;;;1.50;;
12663;SDS011;6396;58.490;15.528;2022-12-29T14:14:47;1.57;;;1.47;;
12663;SDS011;6396;58.490;15.528;2022-12-29T14:17:18;1.73;;;1.50;;
12663;SDS011;6396;58.490;15.528;2022-12-29T14:19:51;2.40;;;1.70;;
12663;SDS011;6396;58.490;15.528;2022-12-29T14:22:23;2.43;;;1.67;;
12663;SDS011;6396;58.490;15.528;2022-12-29T14:24:51;1.70;;;1.60;;
12663;SDS011;6396;58.490;15.528;2022-12-29T14:33:27;2.67;;;2.30;;
12663;SDS011;6396;58.490;15.528;2022-12-29T14:35:55;4.37;;;3.20;;
12663;SDS011;6396;58.490;15.528;2022-12-29T14:38:25;4.40;;;2.73;;
12663;SDS011;6396;58.490;15.528;2022-12-29T14:41:15;2.97;;;2.70;;
12663;SDS011;6396;58.490;15.528;2022-12-29T14:44:01;3.70;;;2.40;;
12663;SDS011;6396;58.490;15.528;2022-12-29T14:46:49;3.10;;;1.60;;
12663;SDS011;6396;58.490;15.528;2022-12-29T14:49:25;3.97;;;2.57;;
12663;SDS011;6396;58.490;15.528;2022-12-29T14:51:54;6.40;;;3.57;;
12663;SDS011;6396;58.490;15.528;2022-12-29T14:54:45;5.17;;;3.70;;
12663;SDS011;6396;58.490;15.528;2022-12-29T14:57:19;4.57;;;2.40;;
12663;SDS011;6396;58.490;15.528;2022-12-29T14:59:49;3.50;;;2.10;;
12663;SDS011;6396;58.490;15.528;2022-12-29T15:02:21;3.77;;;1.70;;
12663;SDS011;6396;58.490;15.528;2022-12-29T15:04:52;5.30;;;2.00;;
12663;SDS011;6396;58.490;15.528;2022-12-29T15:07:24;4.93;;;2.03;;
12663;SDS011;6396;58.490;15.528;2022-12-29T15:09:56;2.90;;;1.50;;
12663;SDS011;6396;58.490;15.528;2022-12-29T15:12:30;3.20;;;1.90;;
12663;SDS011;6396;58.490;15.528;2022-12-29T15:15:10;3.30;;;1.80;;
12663;SDS011;6396;58.490;15.528;2022-12-29T15:17:44;2.90;;;1.80;;
12663;SDS011;6396;58.490;15.528;2022-12-29T15:20:17;4.87;;;1.70;;
12663;SDS011;6396;58.490;15.528;2022-12-29T15:22:48;1.83;;;1.60;;
12663;SDS011;6396;58.490;15.528;2022-12-29T15:25:19;2.93;;;1.90;;
12663;SDS011;6396;58.490;15.528;2022-12-29T15:27:48;4.80;;;2.00;;
12663;SDS011;6396;58.490;15.528;2022-12-29T15:30:16;3.77;;;1.70;;
12663;SDS011;6396;58.490;15.528;2022-12-29T15:32:43;3.83;;;2.03;;
12663;SDS011;6396;58.490;15.528;2022-12-29T15:35:26;3.83;;;2.37;;
12663;SDS011;6396;58.490;15.528;2022-12-29T15:37:58;3.37;;;1.53;;
12663;SDS011;6396;58.490;15.528;2022-12-29T15:40:26;5.90;;;1.83;;